Time;durP1;ratioP1;P1;durP2;ratioP2;P2;SDS_P1;SDS_P2;PMS_P1;PMS_P2;Temp;Humidity;BMP_temperature;BMP_pressure;BME280_temperature;BME280_humidity;BME280_pressure;Samples;Min_cycle;Max_cycle;Signal;HPM_P1;HPM_P2
2022/08/07 00:01:24;;;;;;;9.80;7.10;;;;;;;19.51;79.62;98941.02;104860;1274;76841;-24
2022/08/07 00:04:11;;;;;;;9.10;7.70;;;;;;;19.87;78.20;98947.02;105051;1274;76400;-24
2022/08/07 00:06:41;;;;;;;10.70;7.80;;;;;;;19.80;78.20;98957.33;105093;1274;75128;-24
2022/08/07 00:09:19;;;;;;;14.30;7.90;;;;;;;19.55;79.91;98954.84;104946;1271;62636;-24
2022/08/07 00:11:49;;;;;;;7.80;5.30;;;;;;;19.43;80.88;98960.00;104600;1274;61163;-24
2022/08/07 00:14:28;;;;;;;10.50;7.40;;;;;;;19.74;80.98;98954.85;104652;1271;76552;-24
2022/08/07 00:16:58;;;;;;;12.40;7.90;;;;;;;20.00;80.34;98956.73;104755;1271;75948;-24
2022/08/07 00:19:27;;;;;;;12.10;8.20;;;;;;;19.83;81.54;98957.27;104637;1271;75315;-24
2022/08/07 00:22:15;;;;;;;10.30;7.70;;;;;;;19.75;81.65;98956.53;104735;1273;63096;-24
2022/08/07 00:25:05;;;;;;;6.90;6.00;;;;;;;19.64;82.57;98961.53;105003;1271;63059;-24
2022/08/07 00:27:41;;;;;;;12.00;7.60;;;;;;;20.02;81.19;98968.16;104866;1274;76554;-24
2022/08/07 00:30:22;;;;;;;9.60;7.30;;;;;;;20.42;79.51;98970.58;105043;1272;77071;-24
2022/08/07 00:32:56;;;;;;;10.10;7.40;;;;;;;20.36;79.48;98979.73;104716;1273;75312;-24
2022/08/07 00:35:24;;;;;;;8.50;7.70;;;;;;;20.12;80.24;98974.92;104643;1274;63234;-24
2022/08/07 00:37:52;;;;;;;6.70;5.60;;;;;;;19.97;80.27;98975.53;104747;1274;63116;-24
2022/08/07 00:40:20;;;;;;;8.00;6.20;;;;;;;20.28;79.95;98976.53;105123;1272;76350;-25
2022/08/07 00:43:05;;;;;;;7.60;6.60;;;;;;;20.60;78.37;98974.27;104824;1271;75898;-24
2022/08/07 00:45:40;;;;;;;10.20;7.60;;;;;;;20.49;78.61;98974.11;104791;1271;74102;-24
2022/08/07 00:48:12;;;;;;;9.80;7.70;;;;;;;20.24;79.86;98979.67;104611;1272;61384;-24
2022/08/07 00:50:40;;;;;;;11.20;7.60;;;;;;;19.97;81.15;98973.73;104792;1271;62913;-24
2022/08/07 00:53:18;;;;;;;5.90;5.30;;;;;;;19.78;82.03;98976.55;104979;1272;76608;-24
2022/08/07 00:55:47;;;;;;;8.00;6.00;;;;;;;20.20;81.01;98981.14;104662;1271;76904;-24
2022/08/07 00:58:31;;;;;;;8.80;7.00;;;;;;;20.55;79.03;98980.45;104670;1272;75417;-24
2022/08/07 01:00:58;;;;;;;8.40;6.60;;;;;;;20.46;78.79;98984.38;104761;1272;63105;-24
2022/08/07 01:03:25;;;;;;;10.30;7.60;;;;;;;20.22;79.46;98987.70;104735;1274;63041;-24
2022/08/07 01:06:14;;;;;;;9.40;8.40;;;;;;;19.90;80.71;98981.13;104982;1274;76887;-24
2022/08/07 01:08:44;;;;;;;6.10;5.10;;;;;;;19.68;82.23;98986.77;105004;1271;76110;-24
2022/08/07 01:11:19;;;;;;;6.50;5.90;;;;;;;20.06;81.95;98990.08;104984;1272;73610;-24
2022/08/07 01:14:07;;;;;;;10.30;6.50;;;;;;;20.42;79.71;98993.83;104812;1272;62431;-24
2022/08/07 01:16:35;;;;;;;10.30;6.80;;;;;;;20.34;79.56;98991.96;104659;1274;62808;-24
2022/08/07 01:19:03;;;;;;;8.30;7.10;;;;;;;20.09;80.13;98994.30;104801;1272;75808;-24
2022/08/07 01:21:48;;;;;;;7.50;5.40;;;;;;;19.80;81.96;98996.91;104595;1274;76815;-24
2022/08/07 01:24:20;;;;;;;9.90;7.10;;;;;;;19.88;82.81;98996.49;104642;1271;75412;-24
2022/08/07 01:26:49;;;;;;;7.60;6.80;;;;;;;19.87;83.48;98997.02;104639;1271;62112;-24
2022/08/07 01:29:23;;;;;;;8.90;7.20;;;;;;;19.91;82.74;98997.02;104652;1271;62335;-24
2022/08/07 01:31:54;;;;;;;10.60;6.60;;;;;;;19.61;84.89;98997.26;104819;1271;76560;-24
2022/08/07 01:34:31;;;;;;;6.60;5.40;;;;;;;19.59;84.77;98998.20;104917;1274;76789;-24
2022/08/07 01:37:07;;;;;;;7.70;5.70;;;;;;;19.76;84.56;99001.66;104610;1274;75315;-24
2022/08/07 01:39:38;;;;;;;7.00;5.50;;;;;;;20.07;83.31;99000.23;104667;1274;62202;-24
2022/08/07 01:42:33;;;;;;;9.00;6.80;;;;;;;20.09;82.39;99003.00;104772;1274;63019;-24
2022/08/07 01:45:21;;;;;;;5.80;5.10;;;;;;;19.53;86.09;99002.06;104696;1274;76417;-24
2022/08/07 01:47:56;;;;;;;6.30;5.50;;;;;;;19.86;85.01;99001.52;105049;1274;76981;-24
2022/08/07 01:50:49;;;;;;;6.40;5.30;;;;;;;20.22;83.00;99001.38;104943;1271;75373;-24
2022/08/07 01:53:21;;;;;;;9.70;5.60;;;;;;;20.33;82.05;99007.20;104558;1271;63030;-24
2022/08/07 01:56:13;;;;;;;6.80;6.20;;;;;;;20.16;82.52;99006.07;104682;1274;61141;-24
2022/08/07 01:58:47;;;;;;;5.20;4.30;;;;;;;19.99;83.77;99007.57;104626;1274;75004;-24
2022/08/07 02:01:19;;;;;;;8.00;4.70;;;;;;;20.40;82.74;99009.22;104627;1274;76013;-24
2022/08/07 02:04:09;;;;;;;6.60;5.50;;;;;;;20.70;81.18;99008.36;104642;1274;73982;-24
2022/08/07 02:06:39;;;;;;;11.30;5.70;;;;;;;20.54;81.96;99009.99;104610;1274;62137;-24
2022/08/07 02:09:08;;;;;;;6.50;5.80;;;;;;;20.36;82.85;99007.44;103545;1274;1487521;-24
2022/08/07 02:11:55;;;;;;;5.30;4.20;;;;;;;20.09;84.74;99007.15;104784;1271;76536;-24
2022/08/07 02:14:32;;;;;;;6.90;5.70;;;;;;;20.50;82.94;99005.97;104770;1274;76891;-24
2022/08/07 02:17:14;;;;;;;5.80;5.20;;;;;;;20.72;81.63;99002.84;104608;1271;75323;-24
2022/08/07 02:19:50;;;;;;;7.60;5.30;;;;;;;20.58;81.93;99004.17;104652;1271;63042;-24
2022/08/07 02:22:37;;;;;;;6.90;5.50;;;;;;;20.22;83.85;99010.89;104736;1274;61120;-24
2022/08/07 02:25:08;;;;;;;5.60;4.90;;;;;;;19.98;85.73;99014.31;104551;1274;76310;-24
2022/08/07 02:27:48;;;;;;;6.40;4.80;;;;;;;20.44;83.17;99017.95;104730;1271;76721;-24
2022/08/07 02:30:19;;;;;;;6.80;5.60;;;;;;;20.60;82.59;99025.17;104772;1271;74345;-24
2022/08/07 02:32:48;;;;;;;8.30;6.10;;;;;;;20.31;83.72;99025.79;104644;1272;61250;-24
2022/08/07 02:35:36;;;;;;;5.00;4.20;;;;;;;20.33;83.93;99022.42;104580;1274;63391;-24
2022/08/07 02:38:27;;;;;;;5.50;4.80;;;;;;;20.77;82.38;99026.91;104710;1271;76522;-24
2022/08/07 02:40:59;;;;;;;6.30;4.70;;;;;;;21.07;80.47;99028.67;104669;1271;76375;-24
2022/08/07 02:43:30;;;;;;;6.60;5.10;;;;;;;21.00;80.46;99028.30;104816;1274;74318;-24
2022/08/07 02:45:58;;;;;;;8.80;5.30;;;;;;;20.81;81.04;99028.53;104728;1271;63200;-24
2022/08/07 02:48:29;;;;;;;4.20;3.80;;;;;;;20.56;82.31;99036.04;104696;1274;61944;-24
2022/08/07 02:50:58;;;;;;;5.40;4.20;;;;;;;20.90;81.38;99036.46;104632;1274;76570;-24
2022/08/07 02:53:33;;;;;;;5.80;4.40;;;;;;;21.22;79.87;99037.96;104394;1277;77028;-24
2022/08/07 02:56:07;;;;;;;5.40;4.70;;;;;;;21.09;79.83;99038.14;104537;1274;74082;-24
2022/08/07 02:58:46;;;;;;;8.50;5.30;;;;;;;20.88;80.80;99037.88;104585;1271;61844;-24
2022/08/07 03:01:14;;;;;;;4.30;3.90;;;;;;;20.69;81.60;99037.30;104614;1274;63042;-24
2022/08/07 03:04:01;;;;;;;6.80;4.50;;;;;;;20.87;81.12;99039.86;104607;1274;75567;-24
2022/08/07 03:06:33;;;;;;;5.50;4.60;;;;;;;21.09;80.11;99044.31;105003;1274;76966;-24
2022/08/07 03:09:06;;;;;;;7.90;5.90;;;;;;;20.74;81.49;99041.25;105151;1272;75272;-24
2022/08/07 03:11:37;;;;;;;6.00;4.50;;;;;;;20.50;82.70;99045.91;104735;1271;61931;-24
2022/08/07 03:14:18;;;;;;;7.30;3.60;;;;;;;20.59;82.30;99045.14;104756;1272;62001;-24
2022/08/07 03:16:49;;;;;;;10.00;4.40;;;;;;;20.91;81.24;99043.58;104696;1271;76536;-24
2022/08/07 03:19:18;;;;;;;8.30;5.00;;;;;;;20.87;80.99;99048.61;104733;1271;77157;-24
2022/08/07 03:21:47;;;;;;;5.60;4.30;;;;;;;20.88;81.08;99047.71;104762;1271;75405;-24
2022/08/07 03:24:17;;;;;;;5.60;5.10;;;;;;;20.82;81.36;99053.48;104652;1271;62011;-24
2022/08/07 03:26:57;;;;;;;4.40;4.00;;;;;;;20.63;82.17;99052.14;104702;1272;61821;-24
2022/08/07 03:29:33;;;;;;;5.10;4.60;;;;;;;20.79;81.55;99048.79;104648;1271;76519;-24
2022/08/07 03:32:07;;;;;;;6.50;5.70;;;;;;;20.60;82.41;99051.79;104679;1271;77181;-24
2022/08/07 03:34:41;;;;;;;5.60;4.70;;;;;;;20.52;82.74;99052.08;104548;1273;75629;-24
2022/08/07 03:38:06;;;;;;;4.90;3.40;;;;;;;20.29;84.15;99055.89;101516;1309;616364;-23
2022/08/07 03:40:37;;;;;;;5.10;4.60;;;;;;;20.68;82.57;99059.03;103960;1284;61173;-24
2022/08/07 03:43:13;;;;;;;5.70;5.10;;;;;;;20.44;83.21;99061.94;104342;1284;61152;-24
2022/08/07 03:45:47;;;;;;;6.40;4.80;;;;;;;20.24;84.45;99067.77;103856;1284;73898;-24
2022/08/07 03:48:21;;;;;;;5.30;4.80;;;;;;;20.51;83.31;99067.05;103956;1284;75018;-24
2022/08/07 03:50:48;;;;;;;4.50;3.40;;;;;;;20.47;83.59;99072.70;103217;1281;1227070;-23
2022/08/07 03:53:31;;;;;;;6.40;4.60;;;;;;;20.43;83.78;99075.19;104135;1281;61095;-24
2022/08/07 03:56:20;;;;;;;8.00;5.00;;;;;;;20.88;81.62;99078.26;104325;1281;61870;-23
2022/08/07 03:59:03;;;;;;;5.70;4.80;;;;;;;20.92;81.56;99081.42;104000;1281;74293;-24
2022/08/07 04:01:40;;;;;;;5.80;5.00;;;;;;;20.89;81.42;99077.33;104271;1283;76384;-24
2022/08/07 04:04:15;;;;;;;7.90;3.60;;;;;;;20.76;82.10;99075.73;104055;1284;74344;-23
2022/08/07 04:06:45;;;;;;;7.70;4.20;;;;;;;21.16;80.69;99079.35;103724;1284;61137;-24
2022/08/07 04:09:19;;;;;;;4.10;3.70;;;;;;;21.65;78.44;99082.13;104065;1284;62183;-24
2022/08/07 04:11:51;;;;;;;4.80;4.30;;;;;;;21.55;78.38;99081.05;104099;1284;73872;-24
2022/08/07 04:14:38;;;;;;;4.90;4.20;;;;;;;21.30;79.41;99082.14;104300;1284;76663;-23
2022/08/07 04:17:17;;;;;;;4.60;3.60;;;;;;;20.75;81.58;99079.92;104223;1283;74477;-23
2022/08/07 04:20:09;;;;;;;4.90;3.90;;;;;;;21.37;79.41;99083.88;104110;1283;61183;-24
2022/08/07 04:22:39;;;;;;;4.80;3.90;;;;;;;21.51;78.55;99086.86;104316;1284;61111;-24
2022/08/07 04:25:21;;;;;;;5.30;4.30;;;;;;;21.50;78.49;99088.23;104223;1284;74711;-24
2022/08/07 04:27:51;;;;;;;5.00;4.00;;;;;;;21.12;79.87;99083.68;103778;1284;75100;-23
2022/08/07 04:30:26;;;;;;;3.70;3.00;;;;;;;20.96;80.98;99084.86;104442;1283;74352;-23
2022/08/07 04:33:15;;;;;;;5.80;4.00;;;;;;;21.35;79.50;99080.36;104151;1283;61160;-24
2022/08/07 04:35:51;;;;;;;4.80;4.00;;;;;;;21.34;79.21;99087.58;104189;1282;61137;-24
2022/08/07 04:38:23;;;;;;;4.90;4.30;;;;;;;20.87;81.13;99089.91;104271;1284;75053;-24
2022/08/07 04:40:52;;;;;;;3.40;3.10;;;;;;;20.93;81.43;99096.16;104228;1284;74993;-23
2022/08/07 04:43:35;;;;;;;5.30;2.00;;;;;;;20.90;80.80;99105.30;104460;1283;74499;-24
2022/08/07 04:46:43;;;;;;;2.80;2.10;;;;;;;21.07;79.37;99107.04;104218;1283;62031;-24
2022/08/07 04:49:46;;;;;;;2.60;2.00;;;;;;;21.19;78.71;99107.64;104643;1277;61063;-24
2022/08/07 04:52:57;;;;;;;2.40;2.20;;;;;;;21.00;79.43;99116.05;104409;1277;74828;-24
2022/08/07 04:55:34;;;;;;;2.50;2.10;;;;;;;20.80;79.90;99121.50;104385;1277;76083;-24
2022/08/07 04:58:21;;;;;;;;;;;;;;;20.40;80.59;99124.23;104414;1277;73413;-23
2022/08/07 05:01:27;;;;;;;2.30;1.70;;;;;;;20.31;79.18;99130.42;104570;1277;62059;-23
2022/08/07 05:04:17;;;;;;;2.30;1.70;;;;;;;20.19;78.79;99134.41;104619;1278;61826;-24
2022/08/07 05:06:58;;;;;;;2.20;1.90;;;;;;;19.66;79.95;99135.67;104599;1277;74597;-23
2022/08/07 05:09:42;;;;;;;2.80;2.00;;;;;;;19.36;80.95;99136.86;104369;1277;76729;-24
2022/08/07 05:12:22;;;;;;;1.90;1.30;;;;;;;19.07;82.26;99142.27;104355;1276;74318;-23
2022/08/07 05:15:25;;;;;;;1.90;1.50;;;;;;;19.35;81.34;99135.02;104412;1277;61068;-24
2022/08/07 05:18:20;;;;;;;2.40;2.00;;;;;;;19.40;80.94;99128.28;104541;1277;61163;-24
2022/08/07 05:20:53;;;;;;;3.20;2.10;;;;;;;19.50;81.12;99131.10;104552;1278;74821;-24
2022/08/07 05:23:24;;;;;;;2.80;2.30;;;;;;;19.27;82.03;99131.58;104660;1277;75811;-25
2022/08/07 05:26:00;;;;;;;2.30;1.30;;;;;;;19.18;82.69;99138.17;104522;1277;73334;-24
2022/08/07 05:28:48;;;;;;;1.90;1.70;;;;;;;19.74;80.48;99140.66;104581;1277;61812;-24
2022/08/07 05:31:19;;;;;;;;;;;;;;;20.03;78.53;99140.45;104523;1277;61576;-24
2022/08/07 05:33:48;;;;;;;4.20;2.90;;;;;;;19.88;78.77;99140.41;104591;1277;73793;-24
2022/08/07 05:36:32;;;;;;;8.10;5.60;;;;;;;19.56;79.88;99152.63;104242;1278;76224;-24
2022/08/07 05:39:04;;;;;;;5.10;2.10;;;;;;;19.31;80.73;99159.26;104546;1277;73647;-24
2022/08/07 05:41:55;;;;;;;1.50;1.30;;;;;;;19.16;81.80;99160.37;104594;1277;63655;-24
2022/08/07 05:44:35;;;;;;;1.70;1.30;;;;;;;19.49;80.33;99158.95;104538;1277;61329;-24
2022/08/07 05:47:14;;;;;;;2.30;1.60;;;;;;;19.72;79.08;99162.54;104361;1277;74754;-24
2022/08/07 05:50:02;;;;;;;4.80;1.70;;;;;;;19.56;79.81;99162.63;104607;1277;74585;-24
2022/08/07 05:52:31;;;;;;;5.60;3.40;;;;;;;19.42;80.93;99162.73;104545;1277;74389;-24
2022/08/07 05:55:01;;;;;;;3.90;2.50;;;;;;;19.32;81.27;99164.02;104605;1277;63144;-24
2022/08/07 05:57:38;;;;;;;5.50;2.90;;;;;;;19.47;80.52;99165.44;104427;1277;61743;-24
2022/08/07 06:00:10;;;;;;;8.10;4.70;;;;;;;19.68;79.78;99168.15;104445;1277;73717;-24
2022/08/07 06:02:50;;;;;;;4.90;3.00;;;;;;;19.54;80.00;99168.67;104401;1277;75836;-24
2022/08/07 06:05:20;;;;;;;6.50;4.20;;;;;;;19.38;81.11;99170.51;104455;1277;74535;-25
2022/08/07 06:07:59;;;;;;;2.70;1.60;;;;;;;19.01;82.95;99173.25;104626;1277;63454;-24
2022/08/07 06:10:49;;;;;;;3.70;2.30;;;;;;;19.21;82.04;99173.10;104608;1277;61177;-24
2022/08/07 06:13:19;;;;;;;5.20;3.00;;;;;;;19.29;80.90;99183.80;104285;1277;74749;-24
2022/08/07 06:16:08;;;;;;;1.60;1.40;;;;;;;19.10;81.31;99183.45;104591;1277;75892;-24
2022/08/07 06:18:37;;;;;;;2.60;1.70;;;;;;;18.92;81.77;99186.52;104391;1277;74187;-24
2022/08/07 06:21:05;;;;;;;2.60;1.50;;;;;;;18.82;82.64;99191.67;104265;1277;64207;-24
2022/08/07 06:23:53;;;;;;;3.00;1.70;;;;;;;19.13;81.02;99194.20;104567;1277;61038;-24
2022/08/07 06:26:42;;;;;;;1.90;1.20;;;;;;;19.34;79.72;99195.67;104438;1277;74615;-24
2022/08/07 06:29:10;;;;;;;5.00;2.30;;;;;;;19.12;80.74;99203.16;104409;1277;75381;-24
2022/08/07 06:31:38;;;;;;;3.30;1.50;;;;;;;18.79;81.44;99209.10;104620;1277;74422;-24
2022/08/07 06:34:17;;;;;;;1.60;0.80;;;;;;;18.46;81.78;99208.39;104211;1277;62727;-24
2022/08/07 06:36:47;;;;;;;2.30;0.80;;;;;;;18.75;81.36;99214.83;104575;1277;61145;-24
2022/08/07 06:39:24;;;;;;;1.90;0.90;;;;;;;18.94;79.95;99217.44;104640;1277;74550;-24
2022/08/07 06:42:18;;;;;;;0.80;0.60;;;;;;;18.75;80.27;99220.67;104689;1277;75973;-24
2022/08/07 06:45:04;;;;;;;0.50;0.40;;;;;;;18.25;80.80;99225.65;104468;1277;74440;-24
2022/08/07 06:47:38;;;;;;;1.60;0.80;;;;;;;18.07;82.05;99232.23;104524;1277;63423;-24
2022/08/07 06:50:27;;;;;;;2.30;0.80;;;;;;;18.30;79.23;99229.83;104673;1277;61135;-24
2022/08/07 06:52:57;;;;;;;0.80;0.70;;;;;;;18.38;78.27;99226.13;104387;1277;73713;-24
2022/08/07 06:55:28;;;;;;;1.50;0.60;;;;;;;18.08;78.40;99224.48;104614;1277;75929;-24
2022/08/07 06:58:16;;;;;;;3.20;0.60;;;;;;;17.83;80.26;99225.09;104269;1280;73740;-24
2022/08/07 07:00:55;;;;;;;1.10;0.50;;;;;;;17.88;80.08;99231.08;104624;1277;61267;-24
2022/08/07 07:03:25;;;;;;;1.10;0.60;;;;;;;17.71;79.84;99233.05;104648;1277;61181;-24
2022/08/07 07:06:13;;;;;;;0.50;0.50;;;;;;;18.14;77.82;99230.56;104664;1277;76657;-24
2022/08/07 07:08:52;;;;;;;2.00;0.60;;;;;;;18.47;76.20;99234.65;104690;1277;75045;-24
2022/08/07 07:11:21;;;;;;;1.20;0.70;;;;;;;18.41;75.49;99243.52;104552;1277;74214;-24
2022/08/07 07:14:08;;;;;;;2.90;0.70;;;;;;;18.17;75.54;99247.98;104470;1277;61564;-25
2022/08/07 07:16:37;;;;;;;2.50;0.50;;;;;;;18.05;75.97;99249.73;104556;1277;61042;-24
2022/08/07 07:19:20;;;;;;;;;;;;;;;17.93;76.42;99253.88;104481;1277;74852;-24
2022/08/07 07:22:08;;;;;;;0.90;0.40;;;;;;;18.47;74.48;99262.61;104590;1277;75996;-24
2022/08/07 07:24:56;;;;;;;0.50;0.40;;;;;;;18.64;73.02;99264.17;104574;1277;74471;-24
2022/08/07 07:28:03;;;;;;;5.10;0.40;;;;;;;18.66;73.83;99266.59;104559;1277;61160;-24
2022/08/07 07:31:04;;;;;;;3.00;0.50;;;;;;;18.27;74.20;99260.41;104337;1277;62201;-24
2022/08/07 07:33:34;;;;;;;0.70;0.40;;;;;;;18.10;75.38;99261.39;104674;1277;74571;-24
2022/08/07 07:36:02;;;;;;;0.50;0.30;;;;;;;18.12;75.47;99264.14;104486;1280;77126;-24
2022/08/07 07:38:41;;;;;;;0.20;0.20;;;;;;;18.68;73.38;99260.46;104674;1277;75523;-24
2022/08/07 07:41:12;;;;;;;0.70;0.40;;;;;;;18.96;72.50;99260.29;104690;1277;61248;-25
2022/08/07 07:43:42;;;;;;;0.40;0.30;;;;;;;19.07;71.66;99258.74;104497;1277;62058;-24
2022/08/07 07:46:30;;;;;;;0.40;0.40;;;;;;;18.94;72.15;99260.56;104577;1277;74625;-24
2022/08/07 07:49:21;;;;;;;1.20;0.50;;;;;;;19.11;71.53;99260.40;104709;1277;75794;-24
2022/08/07 07:52:11;;;;;;;1.60;0.40;;;;;;;19.02;71.10;99260.30;104597;1277;74449;-24
2022/08/07 07:54:40;;;;;;;2.80;0.80;;;;;;;18.87;71.59;99267.36;104646;1277;61292;-24
2022/08/07 07:57:22;;;;;;;0.90;0.50;;;;;;;18.81;72.27;99269.20;104607;1277;62010;-24
2022/08/07 08:00:11;;;;;;;0.80;0.40;;;;;;;19.28;70.88;99267.63;104370;1280;74721;-24
2022/08/07 08:02:48;;;;;;;0.50;0.50;;;;;;;19.89;68.77;99268.23;104635;1277;74511;-24
2022/08/07 08:05:36;;;;;;;1.00;0.40;;;;;;;20.12;67.66;99266.86;104697;1277;74506;-24
2022/08/07 08:08:29;;;;;;;1.00;0.50;;;;;;;19.99;67.78;99269.35;104577;1277;61154;-24
2022/08/07 08:11:04;;;;;;;4.20;0.40;;;;;;;19.81;68.30;99276.19;104485;1277;61053;-24
2022/08/07 08:13:36;;;;;;;0.70;0.50;;;;;;;19.66;69.15;99280.30;104322;1277;75508;-24
2022/08/07 08:16:31;;;;;;;0.60;0.50;;;;;;;19.56;69.88;99278.73;104423;1277;75967;-24
2022/08/07 08:19:02;;;;;;;2.60;0.40;;;;;;;19.40;70.10;99279.10;104439;1277;73401;-24
2022/08/07 08:27:52;;;;;;;2.90;0.50;;;;;;;19.01;70.89;99281.17;104636;1274;75784;-24
2022/08/07 08:30:28;;;;;;;0.50;0.50;;;;;;;19.47;69.99;99276.57;104896;1271;74864;-23
2022/08/07 08:32:57;;;;;;;1.30;0.60;;;;;;;19.34;69.31;99277.52;104752;1274;74420;-24
2022/08/07 08:35:26;;;;;;;3.60;0.80;;;;;;;19.12;69.91;99281.77;104599;1274;61979;-24
2022/08/07 08:38:05;;;;;;;2.50;0.60;;;;;;;18.82;71.01;99285.31;104677;1274;61068;-23
2022/08/07 08:40:40;;;;;;;0.70;0.50;;;;;;;18.58;72.04;99281.98;105071;1274;74757;-23
2022/08/07 08:43:20;;;;;;;0.80;0.60;;;;;;;18.27;73.42;99286.80;104677;1273;75502;-23
2022/08/07 08:46:08;;;;;;;0.80;0.80;;;;;;;18.03;74.57;99289.49;104783;1271;72831;-24
2022/08/07 08:48:40;;;;;;;0.40;0.40;;;;;;;18.15;74.51;99298.02;104693;1274;62260;-24
2022/08/07 08:51:29;;;;;;;0.50;0.50;;;;;;;18.50;72.56;99298.77;104929;1274;62011;-23
2022/08/07 08:54:28;;;;;;;1.10;0.40;;;;;;;18.68;71.98;99305.23;104911;1272;75244;-24
2022/08/07 08:56:57;;;;;;;0.30;0.30;;;;;;;18.45;72.40;99308.48;104611;1273;76094;-24
2022/08/07 08:59:49;;;;;;;0.80;0.40;;;;;;;18.28;72.72;99306.35;104638;1271;73589;-24
2022/08/07 09:02:38;;;;;;;0.50;0.40;;;;;;;18.02;74.01;99313.86;104917;1271;61035;-23
2022/08/07 09:05:22;;;;;;;0.40;0.40;;;;;;;17.89;74.42;99314.45;105085;1272;61162;-24
2022/08/07 09:08:43;;;;;;;0.40;0.40;;;;;;;17.96;75.08;99314.02;105084;1274;75607;-25
2022/08/07 09:11:19;;;;;;;1.70;0.30;;;;;;;18.29;73.19;99312.52;105023;1274;76284;-24
2022/08/07 09:14:39;;;;;;;0.20;0.20;;;;;;;18.54;72.95;99318.30;104837;1274;74571;-24
2022/08/07 09:17:37;;;;;;;1.80;0.40;;;;;;;18.25;73.22;99317.70;104882;1274;62092;-24
2022/08/07 09:20:29;;;;;;;0.30;0.30;;;;;;;17.95;74.78;99318.70;104934;1274;62161;-24
2022/08/07 09:23:18;;;;;;;0.30;0.30;;;;;;;17.84;75.65;99315.27;104727;1274;76301;-24
2022/08/07 09:26:12;;;;;;;3.30;0.30;;;;;;;17.83;76.06;99314.61;104572;1274;75143;-24
2022/08/07 09:28:46;;;;;;;0.40;0.40;;;;;;;18.34;75.01;99313.07;104646;1274;73415;-24
2022/08/07 09:31:49;;;;;;;0.40;0.40;;;;;;;18.42;74.31;99310.05;104870;1274;61037;-24
2022/08/07 09:34:30;;;;;;;0.30;0.30;;;;;;;18.36;74.37;99310.59;104651;1274;62075;-24
2022/08/07 09:37:13;;;;;;;0.40;0.40;;;;;;;18.00;76.24;99309.50;104762;1274;73650;-24
2022/08/07 09:39:43;;;;;;;2.60;0.50;;;;;;;17.46;77.55;99307.53;104791;1274;75918;-25
2022/08/07 09:42:49;;;;;;;1.00;0.40;;;;;;;17.58;78.17;99310.10;104703;1274;74287;-24
2022/08/07 09:45:31;;;;;;;0.30;0.30;;;;;;;18.27;75.76;99310.31;104774;1273;62138;-24
2022/08/07 09:48:45;;;;;;;0.50;0.50;;;;;;;18.27;74.62;99306.95;104756;1272;61127;-25
2022/08/07 09:51:35;;;;;;;0.40;0.40;;;;;;;18.15;74.94;99305.98;104814;1274;75516;-25
2022/08/07 09:54:51;;;;;;;0.70;0.40;;;;;;;17.90;76.80;99303.31;104719;1274;75834;-24
2022/08/07 09:57:40;;;;;;;0.40;0.40;;;;;;;17.71;78.01;99304.30;104740;1274;74381;-24
2022/08/07 10:00:15;;;;;;;0.50;0.40;;;;;;;17.79;78.09;99304.57;105074;1274;63460;-25
2022/08/07 10:02:48;;;;;;;0.40;0.40;;;;;;;17.92;76.54;99299.43;104823;1274;61442;-24
2022/08/07 10:05:38;;;;;;;0.40;0.40;;;;;;;18.31;76.43;99297.19;104836;1274;75494;-25
2022/08/07 10:08:54;;;;;;;0.60;0.40;;;;;;;18.16;76.55;99299.57;104737;1271;74948;-24
2022/08/07 10:11:50;;;;;;;0.30;0.30;;;;;;;18.01;76.74;99297.85;104786;1274;75402;-24
2022/08/07 10:14:38;;;;;;;0.40;0.30;;;;;;;17.96;78.22;99302.69;104711;1274;62681;-24
2022/08/07 10:17:34;;;;;;;1.80;0.40;;;;;;;18.38;76.27;99310.29;104836;1272;61105;-24
2022/08/07 10:20:52;;;;;;;0.70;0.30;;;;;;;18.50;75.77;99305.69;105048;1272;75383;-24
2022/08/07 10:23:41;;;;;;;0.50;0.40;;;;;;;17.84;77.19;99305.79;105088;1274;75980;-24
2022/08/07 10:26:40;;;;;;;0.60;0.60;;;;;;;17.41;79.40;99314.92;104923;1273;73740;-24
2022/08/07 10:29:23;;;;;;;0.50;0.50;;;;;;;17.28;80.18;99314.13;104779;1272;62676;-24
2022/08/07 10:31:56;;;;;;;1.70;0.50;;;;;;;17.70;78.83;99310.60;104790;1272;61235;-25
2022/08/07 10:34:53;;;;;;;0.60;0.60;;;;;;;17.63;78.06;99307.61;104774;1274;75676;-25
2022/08/07 10:37:49;;;;;;;1.00;0.90;;;;;;;17.23;79.25;99308.45;104819;1274;75868;-25
2022/08/07 10:40:44;;;;;;;1.00;0.90;;;;;;;17.02;80.67;99312.79;104918;1272;74704;-25
2022/08/07 10:43:16;;;;;;;0.90;0.70;;;;;;;16.92;81.01;99312.77;104775;1271;62627;-24
2022/08/07 10:46:06;;;;;;;1.30;0.80;;;;;;;17.40;78.95;99312.85;104651;1272;61116;-25
2022/08/07 10:48:47;;;;;;;1.90;0.90;;;;;;;17.71;77.84;99307.34;104652;1274;75570;-24
2022/08/07 10:51:28;;;;;;;2.20;1.30;;;;;;;17.67;77.66;99305.48;104781;1271;76074;-25
2022/08/07 10:54:43;;;;;;;1.80;0.80;;;;;;;17.35;79.59;99302.33;104878;1274;74187;-24
2022/08/07 10:57:31;;;;;;;4.60;0.90;;;;;;;17.42;79.80;99293.59;104763;1274;62568;-24
2022/08/07 11:00:10;;;;;;;1.20;1.10;;;;;;;17.79;77.93;99291.04;104674;1276;61166;-24
2022/08/07 11:02:59;;;;;;;1.60;1.50;;;;;;;17.52;78.58;99294.46;104811;1271;75611;-24
2022/08/07 11:05:36;;;;;;;1.80;1.70;;;;;;;17.68;78.11;99292.20;104620;1274;76124;-25
2022/08/07 11:08:36;;;;;;;2.50;1.60;;;;;;;17.45;78.51;99293.73;104678;1274;74374;-25
2022/08/07 11:11:20;;;;;;;1.80;1.60;;;;;;;17.39;79.03;99286.47;104787;1271;60989;-24
2022/08/07 11:13:51;;;;;;;1.70;1.50;;;;;;;17.49;79.38;99290.02;104629;1274;61217;-24
2022/08/07 11:16:46;;;;;;;2.70;1.90;;;;;;;17.57;78.06;99278.15;105020;1271;76960;-24
2022/08/07 11:19:44;;;;;;;2.50;1.90;;;;;;;17.52;78.74;99280.72;104757;1274;76008;-24
2022/08/07 11:22:25;;;;;;;2.50;2.10;;;;;;;17.22;79.34;99285.42;104989;1274;73603;-24
2022/08/07 11:25:31;;;;;;;3.60;1.70;;;;;;;17.06;80.18;99278.38;104591;1274;61138;-24
2022/08/07 11:28:28;;;;;;;1.40;1.30;;;;;;;17.14;80.41;99277.91;104571;1274;61935;-24
2022/08/07 11:31:12;;;;;;;2.70;2.10;;;;;;;17.45;78.80;99279.17;104749;1274;74608;-24
2022/08/07 11:34:23;;;;;;;3.00;2.30;;;;;;;17.61;78.20;99284.00;104627;1274;74973;-24
2022/08/07 11:37:14;;;;;;;2.50;2.10;;;;;;;17.40;79.01;99287.13;104745;1274;73547;-24
2022/08/07 11:39:47;;;;;;;2.50;1.70;;;;;;;17.17;79.96;99290.23;104745;1274;62651;-24
2022/08/07 11:42:57;;;;;;;3.30;2.20;;;;;;;17.45;78.75;99291.27;104906;1274;61042;-24
2022/08/07 11:45:44;;;;;;;2.30;2.10;;;;;;;17.72;78.05;99292.00;104755;1274;75494;-24
2022/08/07 11:48:52;;;;;;;2.90;2.30;;;;;;;17.38;78.65;99289.60;105088;1274;74344;-24
2022/08/07 11:52:08;;;;;;;2.50;1.90;;;;;;;16.98;80.24;99296.71;104718;1274;74466;-25
2022/08/07 11:54:51;;;;;;;4.80;2.00;;;;;;;16.88;81.14;99294.30;104784;1274;61506;-24
2022/08/07 11:57:32;;;;;;;2.30;2.00;;;;;;;17.48;78.87;99296.08;104598;1274;62094;-24
2022/08/07 12:00:24;;;;;;;2.00;1.80;;;;;;;17.44;78.35;99297.02;104564;1274;75788;-24
2022/08/07 12:03:40;;;;;;;2.60;2.30;;;;;;;17.44;78.57;99294.38;104575;1271;76199;-24
2022/08/07 12:06:39;;;;;;;1.60;1.40;;;;;;;17.35;79.31;99294.10;105083;1274;72324;-24
2022/08/07 12:09:28;;;;;;;3.20;1.80;;;;;;;17.39;79.21;99291.08;105064;1271;61234;-24
2022/08/07 12:12:09;;;;;;;2.90;1.90;;;;;;;17.29;79.47;99289.33;104763;1271;61134;-24
2022/08/07 12:14:57;;;;;;;2.90;1.80;;;;;;;17.51;78.70;99291.47;104768;1274;75002;-24
2022/08/07 12:17:37;;;;;;;2.20;1.90;;;;;;;17.35;78.99;99284.79;104627;1274;75980;-24
2022/08/07 12:20:11;;;;;;;3.30;1.90;;;;;;;17.18;80.00;99289.56;104664;1272;74474;-24
2022/08/07 12:23:29;;;;;;;2.90;1.80;;;;;;;17.58;78.29;99288.05;104897;1271;61113;-24
2022/08/07 12:26:43;;;;;;;3.10;2.00;;;;;;;17.68;77.81;99294.70;104869;1272;61073;-24
2022/08/07 12:29:50;;;;;;;3.70;1.90;;;;;;;17.55;78.10;99291.64;104687;1275;75615;-24
2022/08/07 12:32:20;;;;;;;2.50;2.10;;;;;;;17.29;79.39;99294.75;105011;1274;75770;-24
2022/08/07 12:34:48;;;;;;;1.60;1.20;;;;;;;17.24;79.89;99298.59;104672;1276;72650;-24
2022/08/07 12:37:24;;;;;;;2.20;1.70;;;;;;;17.80;77.75;99296.00;104579;1274;61076;-24
2022/08/07 12:40:12;;;;;;;3.20;1.60;;;;;;;17.98;76.40;99297.78;104783;1271;61961;-24